sensor_id;sensor_type;location;lat;lon;timestamp;pressure;altitude;pressure_sealevel;temperature;humidity
29197;BME280;62796;42.654;23.316;2023-02-04T00:00:58;94350.38;;;5.11;50.11
29197;BME280;62796;42.654;23.316;2023-02-04T00:03:24;94331.59;;;4.91;50.89
29197;BME280;62796;42.654;23.316;2023-02-04T00:05:49;94356.59;;;5.02;50.70
29197;BME280;62796;42.654;23.316;2023-02-04T00:08:15;94346.69;;;5.05;51.03
29197;BME280;62796;42.654;23.316;2023-02-04T00:10:40;94329.31;;;5.08;50.90
29197;BME280;62796;42.654;23.316;2023-02-04T00:13:06;94334.75;;;4.72;51.85
29197;BME280;62796;42.654;23.316;2023-02-04T00:15:32;94332.75;;;4.81;52.42
29197;BME280;62796;42.654;23.316;2023-02-04T00:17:57;94342.84;;;4.84;52.58
29197;BME280;62796;42.654;23.316;2023-02-04T00:20:23;94320.31;;;4.89;52.34
29197;BME280;62796;42.654;23.316;2023-02-04T00:22:48;94313.25;;;4.79;53.00
29197;BME280;62796;42.654;23.316;2023-02-04T00:25:15;94322.03;;;4.56;53.97
29197;BME280;62796;42.654;23.316;2023-02-04T00:27:41;94320.50;;;4.55;54.64
29197;BME280;62796;42.654;23.316;2023-02-04T00:30:07;94324.78;;;4.56;54.30
29197;BME280;62796;42.654;23.316;2023-02-04T00:32:32;94313.53;;;4.72;53.94
29197;BME280;62796;42.654;23.316;2023-02-04T00:34:58;94318.75;;;4.79;53.76
29197;BME280;62796;42.654;23.316;2023-02-04T00:37:23;94311.59;;;4.82;54.10
29197;BME280;62796;42.654;23.316;2023-02-04T00:39:49;94320.88;;;4.84;54.53
29197;BME280;62796;42.654;23.316;2023-02-04T00:42:15;94319.69;;;4.85;53.93
29197;BME280;62796;42.654;23.316;2023-02-04T00:44:40;94325.63;;;4.93;53.77
29197;BME280;62796;42.654;23.316;2023-02-04T00:47:05;94318.94;;;4.94;53.76
29197;BME280;62796;42.654;23.316;2023-02-04T00:49:33;94321.50;;;4.88;53.97
29197;BME280;62796;42.654;23.316;2023-02-04T00:51:58;94309.91;;;4.84;54.34
29197;BME280;62796;42.654;23.316;2023-02-04T00:54:24;94305.50;;;4.87;54.96
29197;BME280;62796;42.654;23.316;2023-02-04T00:56:49;94290.53;;;4.79;54.50
29197;BME280;62796;42.654;23.316;2023-02-04T00:59:14;94290.41;;;4.82;54.71
29197;BME280;62796;42.654;23.316;2023-02-04T01:01:40;94298.34;;;4.80;54.81
29197;BME280;62796;42.654;23.316;2023-02-04T01:04:06;94293.41;;;4.75;54.89
29197;BME280;62796;42.654;23.316;2023-02-04T01:06:32;94280.91;;;4.65;54.98
29197;BME280;62796;42.654;23.316;2023-02-04T01:08:57;94282.13;;;4.64;55.63
29197;BME280;62796;42.654;23.316;2023-02-04T01:11:22;94277.56;;;4.70;54.95
29197;BME280;62796;42.654;23.316;2023-02-04T01:13:48;94276.03;;;4.69;55.08
29197;BME280;62796;42.654;23.316;2023-02-04T01:16:13;94268.28;;;4.68;55.10
29197;BME280;62796;42.654;23.316;2023-02-04T01:18:39;94243.56;;;4.59;55.04
29197;BME280;62796;42.654;23.316;2023-02-04T01:21:05;94261.38;;;4.63;55.27
29197;BME280;62796;42.654;23.316;2023-02-04T01:23:30;94237.31;;;4.58;55.32
29197;BME280;62796;42.654;23.316;2023-02-04T01:25:56;94254.63;;;4.37;55.87
29197;BME280;62796;42.654;23.316;2023-02-04T01:28:21;94263.13;;;4.30;56.63
29197;BME280;62796;42.654;23.316;2023-02-04T01:30:47;94243.38;;;4.44;55.63
29197;BME280;62796;42.654;23.316;2023-02-04T01:33:12;94233.19;;;4.44;55.19
29197;BME280;62796;42.654;23.316;2023-02-04T01:35:37;94237.91;;;4.53;55.25
29197;BME280;62796;42.654;23.316;2023-02-04T01:38:03;94234.56;;;4.58;54.72
29197;BME280;62796;42.654;23.316;2023-02-04T01:40:28;94238.22;;;4.55;55.05
29197;BME280;62796;42.654;23.316;2023-02-04T01:42:54;94236.88;;;4.60;54.92
29197;BME280;62796;42.654;23.316;2023-02-04T01:45:19;94230.28;;;4.57;54.94
29197;BME280;62796;42.654;23.316;2023-02-04T01:47:45;94222.03;;;4.48;55.21
29197;BME280;62796;42.654;23.316;2023-02-04T01:50:15;94223.88;;;4.51;55.07
29197;BME280;62796;42.654;23.316;2023-02-04T01:52:42;94232.72;;;4.55;54.69
29197;BME280;62796;42.654;23.316;2023-02-04T01:55:20;94207.59;;;4.47;54.76
29197;BME280;62796;42.654;23.316;2023-02-04T01:57:49;94227.84;;;4.50;54.90
29197;BME280;62796;42.654;23.316;2023-02-04T02:00:21;94210.78;;;4.55;54.27
29197;BME280;62796;42.654;23.316;2023-02-04T02:02:50;94203.03;;;4.54;54.59
29197;BME280;62796;42.654;23.316;2023-02-04T02:08:05;94210.78;;;4.55;54.43
29197;BME280;62796;42.654;23.316;2023-02-04T02:10:32;94203.16;;;4.50;54.14
29197;BME280;62796;42.654;23.316;2023-02-04T02:12:59;94180.00;;;4.42;54.42
29197;BME280;62796;42.654;23.316;2023-02-04T02:15:25;94190.34;;;4.38;54.99
29197;BME280;62796;42.654;23.316;2023-02-04T02:17:52;94198.28;;;4.36;54.83
29197;BME280;62796;42.654;23.316;2023-02-04T02:20:20;94198.56;;;4.38;54.73
29197;BME280;62796;42.654;23.316;2023-02-04T02:25:47;94190.31;;;4.20;54.85
29197;BME280;62796;42.654;23.316;2023-02-04T02:28:20;94176.00;;;4.25;55.14
29197;BME280;62796;42.654;23.316;2023-02-04T02:30:47;94173.56;;;4.27;55.00
29197;BME280;62796;42.654;23.316;2023-02-04T02:33:18;94155.47;;;4.29;54.82
29197;BME280;62796;42.654;23.316;2023-02-04T02:35:45;94135.22;;;4.36;54.98
29197;BME280;62796;42.654;23.316;2023-02-04T02:38:13;94136.41;;;4.35;54.76
29197;BME280;62796;42.654;23.316;2023-02-04T02:40:39;94127.91;;;4.33;55.00
29197;BME280;62796;42.654;23.316;2023-02-04T02:43:04;94108.09;;;4.38;54.62
29197;BME280;62796;42.654;23.316;2023-02-04T02:45:31;94107.47;;;4.34;54.81
29197;BME280;62796;42.654;23.316;2023-02-04T02:47:58;94112.97;;;4.43;54.51
29197;BME280;62796;42.654;23.316;2023-02-04T02:50:26;94115.09;;;4.48;54.40
29197;BME280;62796;42.654;23.316;2023-02-04T02:52:53;94120.00;;;4.53;53.97
29197;BME280;62796;42.654;23.316;2023-02-04T02:55:21;94113.13;;;4.58;54.04
29197;BME280;62796;42.654;23.316;2023-02-04T02:57:48;94101.72;;;4.59;53.67
29197;BME280;62796;42.654;23.316;2023-02-04T03:00:28;94089.97;;;4.59;53.70
29197;BME280;62796;42.654;23.316;2023-02-04T03:03:01;94106.88;;;4.30;54.44
29197;BME280;62796;42.654;23.316;2023-02-04T03:05:32;94100.78;;;4.26;54.85
29197;BME280;62796;42.654;23.316;2023-02-04T03:07:58;94104.72;;;4.34;54.77
29197;BME280;62796;42.654;23.316;2023-02-04T03:10:24;94104.75;;;4.43;54.17
29197;BME280;62796;42.654;23.316;2023-02-04T03:12:49;94110.22;;;4.43;54.11
29197;BME280;62796;42.654;23.316;2023-02-04T03:15:15;94116.34;;;4.47;54.74
29197;BME280;62796;42.654;23.316;2023-02-04T03:17:40;94106.56;;;4.46;53.85
29197;BME280;62796;42.654;23.316;2023-02-04T03:20:07;94111.75;;;4.53;54.19
29197;BME280;62796;42.654;23.316;2023-02-04T03:22:34;94115.28;;;4.54;54.08
29197;BME280;62796;42.654;23.316;2023-02-04T03:24:59;94102.28;;;4.45;54.28
29197;BME280;62796;42.654;23.316;2023-02-04T03:27:25;94113.56;;;4.38;54.32
29197;BME280;62796;42.654;23.316;2023-02-04T03:29:50;94108.09;;;4.38;54.47
29197;BME280;62796;42.654;23.316;2023-02-04T03:32:16;94108.09;;;4.38;54.33
29197;BME280;62796;42.654;23.316;2023-02-04T03:34:41;94110.97;;;4.34;54.38
29197;BME280;62796;42.654;23.316;2023-02-04T03:37:07;94107.47;;;4.34;54.17
29197;BME280;62796;42.654;23.316;2023-02-04T03:39:32;94109.94;;;4.41;54.38
29197;BME280;62796;42.654;23.316;2023-02-04T03:41:58;94121.34;;;4.39;54.31
29197;BME280;62796;42.654;23.316;2023-02-04T03:44:23;94113.44;;;4.41;54.36
29197;BME280;62796;42.654;23.316;2023-02-04T03:46:51;94095.31;;;4.53;54.07
29197;BME280;62796;42.654;23.316;2023-02-04T03:49:20;94084.34;;;4.53;53.86
29197;BME280;62796;42.654;23.316;2023-02-04T03:51:45;94083.44;;;4.47;54.10
29197;BME280;62796;42.654;23.316;2023-02-04T03:54:11;94067.59;;;4.33;53.99
29197;BME280;62796;42.654;23.316;2023-02-04T03:56:36;94073.03;;;4.51;53.35
29197;BME280;62796;42.654;23.316;2023-02-04T03:59:01;94060.09;;;4.61;53.20
29197;BME280;62796;42.654;23.316;2023-02-04T04:01:27;94057.19;;;4.64;52.67
29197;BME280;62796;42.654;23.316;2023-02-04T04:03:52;94049.59;;;4.68;52.81
29197;BME280;62796;42.654;23.316;2023-02-04T04:06:17;94026.72;;;4.71;53.04
29197;BME280;62796;42.654;23.316;2023-02-04T04:08:43;94020.31;;;4.74;52.91
29197;BME280;62796;42.654;23.316;2023-02-04T04:11:08;94022.72;;;4.81;52.10
29197;BME280;62796;42.654;23.316;2023-02-04T04:13:34;94013.25;;;4.91;52.35
29197;BME280;62796;42.654;23.316;2023-02-04T04:15:59;94019.94;;;4.99;52.14
29197;BME280;62796;42.654;23.316;2023-02-04T04:18:24;93997.66;;;5.07;51.80
29197;BME280;62796;42.654;23.316;2023-02-04T04:20:50;94008.81;;;5.03;51.91
29197;BME280;62796;42.654;23.316;2023-02-04T04:23:15;94014.31;;;4.94;52.14
29197;BME280;62796;42.654;23.316;2023-02-04T04:25:40;94013.25;;;4.91;52.28
29197;BME280;62796;42.654;23.316;2023-02-04T04:28:06;94019.94;;;4.99;52.37
29197;BME280;62796;42.654;23.316;2023-02-04T04:30:31;94016.59;;;5.05;52.19
29197;BME280;62796;42.654;23.316;2023-02-04T04:32:57;94022.41;;;4.97;51.88
29197;BME280;62796;42.654;23.316;2023-02-04T04:35:22;94019.69;;;4.88;52.76
29197;BME280;62796;42.654;23.316;2023-02-04T04:37:47;94036.44;;;4.81;52.90
29197;BME280;62796;42.654;23.316;2023-02-04T04:40:13;94039.19;;;4.81;52.75
29197;BME280;62796;42.654;23.316;2023-02-04T04:42:38;94033.41;;;4.79;52.87
29197;BME280;62796;42.654;23.316;2023-02-04T04:45:09;94042.06;;;4.87;52.94
29197;BME280;62796;42.654;23.316;2023-02-04T04:47:34;94046.06;;;4.77;53.11
29197;BME280;62796;42.654;23.316;2023-02-04T04:50:00;94058.25;;;4.85;52.86
29197;BME280;62796;42.654;23.316;2023-02-04T04:52:25;94058.09;;;4.88;53.33
29197;BME280;62796;42.654;23.316;2023-02-04T04:54:50;94054.75;;;4.66;53.68
29197;BME280;62796;42.654;23.316;2023-02-04T04:57:16;94059.31;;;4.78;53.29
29197;BME280;62796;42.654;23.316;2023-02-04T04:59:41;94056.41;;;4.82;53.32
29197;BME280;62796;42.654;23.316;2023-02-04T05:02:07;94059.03;;;4.49;54.01
29197;BME280;62796;42.654;23.316;2023-02-04T05:04:32;94044.09;;;4.68;53.99
29197;BME280;62796;42.654;23.316;2023-02-04T05:06:57;94041.00;;;4.84;54.36
29197;BME280;62796;42.654;23.316;2023-02-04T05:09:23;94030.34;;;4.95;54.28
29197;BME280;62796;42.654;23.316;2023-02-04T05:11:48;94022.09;;;5.05;53.87
29197;BME280;62796;42.654;23.316;2023-02-04T05:14:13;94031.78;;;5.15;53.49
29197;BME280;62796;42.654;23.316;2023-02-04T05:16:39;94036.03;;;5.25;53.52
29197;BME280;62796;42.654;23.316;2023-02-04T05:19:04;94033.91;;;5.20;54.00
29197;BME280;62796;42.654;23.316;2023-02-04T05:21:30;94059.94;;;5.42;54.26
29197;BME280;62796;42.654;23.316;2023-02-04T05:23:55;94055.50;;;5.45;54.05
29197;BME280;62796;42.654;23.316;2023-02-04T05:26:20;94062.06;;;5.38;53.67
29197;BME280;62796;42.654;23.316;2023-02-04T05:28:46;94068.00;;;5.46;54.57
29197;BME280;62796;42.654;23.316;2023-02-04T05:31:11;94077.72;;;5.56;54.07
29197;BME280;62796;42.654;23.316;2023-02-04T05:33:36;94085.06;;;5.50;53.75
29197;BME280;62796;42.654;23.316;2023-02-04T05:36:02;94086.44;;;5.54;53.76
29197;BME280;62796;42.654;23.316;2023-02-04T05:38:27;94102.16;;;5.54;53.74
29197;BME280;62796;42.654;23.316;2023-02-04T05:40:53;94089.81;;;5.49;54.41
29197;BME280;62796;42.654;23.316;2023-02-04T05:43:18;94110.09;;;5.52;54.71
29197;BME280;62796;42.654;23.316;2023-02-04T05:45:43;94117.13;;;5.44;55.43
29197;BME280;62796;42.654;23.316;2023-02-04T05:48:09;94111.66;;;5.35;55.39
29197;BME280;62796;42.654;23.316;2023-02-04T05:50:34;94119.59;;;5.33;55.15
29197;BME280;62796;42.654;23.316;2023-02-04T05:53:00;94137.94;;;5.09;55.49
29197;BME280;62796;42.654;23.316;2023-02-04T05:55:25;94119.50;;;5.09;55.98
29197;BME280;62796;42.654;23.316;2023-02-04T05:57:50;94109.28;;;5.00;55.71
29197;BME280;62796;42.654;23.316;2023-02-04T06:00:16;94090.88;;;4.56;56.74
29197;BME280;62796;42.654;23.316;2023-02-04T06:02:41;94078.69;;;4.29;56.58
29197;BME280;62796;42.654;23.316;2023-02-04T06:05:07;94065.56;;;4.15;56.81
29197;BME280;62796;42.654;23.316;2023-02-04T06:07:32;94084.31;;;4.26;55.96
29197;BME280;62796;42.654;23.316;2023-02-04T06:09:57;94081.75;;;4.50;54.93
29197;BME280;62796;42.654;23.316;2023-02-04T06:12:23;94061.50;;;4.47;54.21
29197;BME280;62796;42.654;23.316;2023-02-04T06:14:48;94066.22;;;4.46;53.54
29197;BME280;62796;42.654;23.316;2023-02-04T06:17:14;94081.88;;;4.64;53.22
29197;BME280;62796;42.654;23.316;2023-02-04T06:19:39;94087.06;;;4.71;52.08
29197;BME280;62796;42.654;23.316;2023-02-04T06:22:04;94098.97;;;4.86;51.89
29197;BME280;62796;42.654;23.316;2023-02-04T06:24:30;94111.75;;;4.80;52.24
29197;BME280;62796;42.654;23.316;2023-02-04T06:26:55;94117.25;;;4.98;52.21
29197;BME280;62796;42.654;23.316;2023-02-04T06:29:21;94101.69;;;4.95;52.07
29197;BME280;62796;42.654;23.316;2023-02-04T06:31:46;94100.00;;;4.98;51.61
29197;BME280;62796;42.654;23.316;2023-02-04T06:34:13;94092.81;;;5.10;51.42
29197;BME280;62796;42.654;23.316;2023-02-04T06:36:39;94118.13;;;5.14;50.68
29197;BME280;62796;42.654;23.316;2023-02-04T06:39:04;94113.50;;;5.29;50.81
29197;BME280;62796;42.654;23.316;2023-02-04T06:41:29;94106.78;;;5.39;50.17
29197;BME280;62796;42.654;23.316;2023-02-04T06:43:55;94111.94;;;5.46;49.56
29197;BME280;62796;42.654;23.316;2023-02-04T06:46:20;94108.34;;;5.22;49.99
29197;BME280;62796;42.654;23.316;2023-02-04T06:48:45;94106.09;;;5.53;49.57
29197;BME280;62796;42.654;23.316;2023-02-04T06:51:11;94111.16;;;5.96;48.57
29197;BME280;62796;42.654;23.316;2023-02-04T06:53:36;94101.50;;;6.48;47.35
29197;BME280;62796;42.654;23.316;2023-02-04T06:56:02;94098.84;;;6.78;46.07
29197;BME280;62796;42.654;23.316;2023-02-04T06:58:28;94112.41;;;6.81;45.33
29197;BME280;62796;42.654;23.316;2023-02-04T07:00:53;94112.88;;;7.18;45.01
29197;BME280;62796;42.654;23.316;2023-02-04T07:03:18;94084.56;;;7.32;44.47
29197;BME280;62796;42.654;23.316;2023-02-04T07:05:44;94093.59;;;6.65;45.25
29197;BME280;62796;42.654;23.316;2023-02-04T07:08:09;94084.69;;;6.70;45.26
29197;BME280;62796;42.654;23.316;2023-02-04T07:10:35;94097.56;;;6.64;45.78
29197;BME280;62796;42.654;23.316;2023-02-04T07:13:00;94090.97;;;6.85;45.63
29197;BME280;62796;42.654;23.316;2023-02-04T07:15:25;94091.41;;;7.07;44.04
29197;BME280;62796;42.654;23.316;2023-02-04T07:17:51;94082.56;;;7.33;43.73
29197;BME280;62796;42.654;23.316;2023-02-04T07:20:16;94092.63;;;6.92;45.09
29197;BME280;62796;42.654;23.316;2023-02-04T07:22:42;94084.25;;;6.86;45.11
29197;BME280;62796;42.654;23.316;2023-02-04T07:25:08;94085.03;;;7.31;44.26
29197;BME280;62796;42.654;23.316;2023-02-04T07:27:34;94075.25;;;7.00;45.14
29197;BME280;62796;42.654;23.316;2023-02-04T07:30:00;94061.66;;;7.41;43.46
29197;BME280;62796;42.654;23.316;2023-02-04T07:32:25;94063.22;;;7.76;42.57
29197;BME280;62796;42.654;23.316;2023-02-04T07:34:52;94064.88;;;8.03;41.35
29197;BME280;62796;42.654;23.316;2023-02-04T07:37:17;94068.53;;;7.80;41.96
29197;BME280;62796;42.654;23.316;2023-02-04T07:39:44;94080.16;;;7.69;42.51
29197;BME280;62796;42.654;23.316;2023-02-04T07:42:10;94072.91;;;7.87;42.20
29197;BME280;62796;42.654;23.316;2023-02-04T07:44:35;94061.78;;;8.16;41.78
29197;BME280;62796;42.654;23.316;2023-02-04T07:47:02;94073.78;;;8.48;41.16
29197;BME280;62796;42.654;23.316;2023-02-04T07:49:27;94073.34;;;8.34;41.10
29197;BME280;62796;42.654;23.316;2023-02-04T07:51:53;94068.41;;;8.39;40.79
29197;BME280;62796;42.654;23.316;2023-02-04T07:54:18;94064.97;;;8.09;41.51
29197;BME280;62796;42.654;23.316;2023-02-04T07:56:43;94069.09;;;8.54;40.69
29197;BME280;62796;42.654;23.316;2023-02-04T07:59:09;94074.41;;;8.22;41.36
29197;BME280;62796;42.654;23.316;2023-02-04T08:01:34;94076.84;;;8.15;41.44
29197;BME280;62796;42.654;23.316;2023-02-04T08:04:00;94073.59;;;8.16;41.27
29197;BME280;62796;42.654;23.316;2023-02-04T08:06:25;94071.94;;;8.24;41.56
29197;BME280;62796;42.654;23.316;2023-02-04T08:08:50;94069.03;;;8.13;41.17
29197;BME280;62796;42.654;23.316;2023-02-04T08:11:16;94070.34;;;8.18;41.33
29197;BME280;62796;42.654;23.316;2023-02-04T08:13:41;94067.22;;;8.10;41.37
29197;BME280;62796;42.654;23.316;2023-02-04T08:16:06;94083.66;;;8.19;41.26
29197;BME280;62796;42.654;23.316;2023-02-04T08:18:32;94080.06;;;8.13;41.65
29197;BME280;62796;42.654;23.316;2023-02-04T08:20:57;94084.09;;;7.98;41.82
29197;BME280;62796;42.654;23.316;2023-02-04T08:23:24;94079.41;;;7.69;42.33
29197;BME280;62796;42.654;23.316;2023-02-04T08:25:50;94081.31;;;7.63;42.81
29197;BME280;62796;42.654;23.316;2023-02-04T08:28:15;94065.25;;;7.47;43.05
29197;BME280;62796;42.654;23.316;2023-02-04T08:30:40;94064.03;;;7.48;43.38
29197;BME280;62796;42.654;23.316;2023-02-04T08:33:06;94050.56;;;7.35;43.38
29197;BME280;62796;42.654;23.316;2023-02-04T08:35:31;94055.78;;;7.48;43.44
29197;BME280;62796;42.654;23.316;2023-02-04T08:37:57;94057.78;;;7.33;43.54
29197;BME280;62796;42.654;23.316;2023-02-04T08:40:22;94050.19;;;7.28;43.82
29197;BME280;62796;42.654;23.316;2023-02-04T08:42:48;94051.31;;;7.36;44.39
29197;BME280;62796;42.654;23.316;2023-02-04T08:45:13;94057.19;;;7.14;45.22
29197;BME280;62796;42.654;23.316;2023-02-04T08:47:39;94055.69;;;7.28;45.01
29197;BME280;62796;42.654;23.316;2023-02-04T08:50:05;94030.53;;;7.05;45.76
29197;BME280;62796;42.654;23.316;2023-02-04T08:52:30;94040.22;;;7.01;45.92
29197;BME280;62796;42.654;23.316;2023-02-04T08:54:56;94051.91;;;6.96;46.21
29197;BME280;62796;42.654;23.316;2023-02-04T08:57:21;94048.84;;;6.79;46.70
29197;BME280;62796;42.654;23.316;2023-02-04T08:59:46;94042.28;;;6.77;46.75
29197;BME280;62796;42.654;23.316;2023-02-04T09:02:12;94037.91;;;6.70;47.25
29197;BME280;62796;42.654;23.316;2023-02-04T09:04:37;94039.78;;;6.64;47.06
29197;BME280;62796;42.654;23.316;2023-02-04T09:07:03;94039.13;;;6.69;46.92
29197;BME280;62796;42.654;23.316;2023-02-04T09:09:28;94042.53;;;6.64;46.58
29197;BME280;62796;42.654;23.316;2023-02-04T09:11:53;94036.09;;;6.67;46.40
29197;BME280;62796;42.654;23.316;2023-02-04T09:14:19;94038.94;;;6.73;45.95
29197;BME280;62796;42.654;23.316;2023-02-04T09:16:44;94040.47;;;6.74;45.48
29197;BME280;62796;42.654;23.316;2023-02-04T09:19:10;94037.19;;;6.46;46.49
29197;BME280;62796;42.654;23.316;2023-02-04T09:21:37;94038.75;;;6.61;46.37
29197;BME280;62796;42.654;23.316;2023-02-04T09:24:03;94026.84;;;6.41;46.49
29197;BME280;62796;42.654;23.316;2023-02-04T09:26:28;94032.66;;;6.57;45.69
29197;BME280;62796;42.654;23.316;2023-02-04T09:28:53;94044.03;;;6.50;45.51
29197;BME280;62796;42.654;23.316;2023-02-04T09:31:19;94037.69;;;6.21;46.79
29197;BME280;62796;42.654;23.316;2023-02-04T09:33:45;94040.44;;;6.21;46.92
29197;BME280;62796;42.654;23.316;2023-02-04T09:36:10;94049.72;;;6.47;46.85
29197;BME280;62796;42.654;23.316;2023-02-04T09:38:35;94051.03;;;6.51;47.40
29197;BME280;62796;42.654;23.316;2023-02-04T09:41:03;94041.22;;;6.59;47.82
29197;BME280;62796;42.654;23.316;2023-02-04T09:43:33;94041.59;;;6.67;47.52
29197;BME280;62796;42.654;23.316;2023-02-04T09:46:01;94043.03;;;6.77;47.68
29197;BME280;62796;42.654;23.316;2023-02-04T09:48:27;94036.22;;;6.34;49.15
29197;BME280;62796;42.654;23.316;2023-02-04T09:51:02;94035.53;;;6.63;49.37
29197;BME280;62796;42.654;23.316;2023-02-04T09:53:29;94023.56;;;6.66;49.52
29197;BME280;62796;42.654;23.316;2023-02-04T09:55:55;94023.28;;;6.64;49.79
29197;BME280;62796;42.654;23.316;2023-02-04T09:58:22;94020.72;;;6.75;49.75
29197;BME280;62796;42.654;23.316;2023-02-04T10:00:57;94013.38;;;6.43;51.17
29197;BME280;62796;42.654;23.316;2023-02-04T10:03:23;94018.81;;;6.66;50.42
29197;BME280;62796;42.654;23.316;2023-02-04T10:05:49;94019.13;;;6.83;49.38
29197;BME280;62796;42.654;23.316;2023-02-04T10:08:18;94009.16;;;6.86;49.05
29197;BME280;62796;42.654;23.316;2023-02-04T10:10:45;94010.78;;;6.63;48.99
29197;BME280;62796;42.654;23.316;2023-02-04T10:13:18;94003.47;;;6.75;49.01
29197;BME280;62796;42.654;23.316;2023-02-04T10:15:46;94002.81;;;6.80;48.06
29197;BME280;62796;42.654;23.316;2023-02-04T10:18:18;93991.03;;;6.79;48.00
29197;BME280;62796;42.654;23.316;2023-02-04T10:20:46;93992.47;;;6.75;48.20
29197;BME280;62796;42.654;23.316;2023-02-04T10:23:11;93982.28;;;6.51;48.90
29197;BME280;62796;42.654;23.316;2023-02-04T10:25:37;93985.34;;;6.53;49.38
29197;BME280;62796;42.654;23.316;2023-02-04T10:28:02;93980.53;;;6.39;49.82
29197;BME280;62796;42.654;23.316;2023-02-04T10:30:30;93982.75;;;6.50;49.34
29197;BME280;62796;42.654;23.316;2023-02-04T10:32:59;93989.47;;;6.49;49.35
29197;BME280;62796;42.654;23.316;2023-02-04T10:35:43;93984.13;;;6.31;50.28
29197;BME280;62796;42.654;23.316;2023-02-04T10:38:09;93999.63;;;6.43;50.44
29197;BME280;62796;42.654;23.316;2023-02-04T10:40:35;93989.00;;;6.36;51.52
29197;BME280;62796;42.654;23.316;2023-02-04T10:45:44;93987.25;;;6.24;53.29
29197;BME280;62796;42.654;23.316;2023-02-04T10:48:18;93990.88;;;6.30;53.92
29197;BME280;62796;42.654;23.316;2023-02-04T10:50:45;93977.91;;;6.06;54.50
29197;BME280;62796;42.654;23.316;2023-02-04T10:53:11;93979.03;;;6.24;53.52
29197;BME280;62796;42.654;23.316;2023-02-04T10:55:58;93973.06;;;6.40;52.82
29197;BME280;62796;42.654;23.316;2023-02-04T10:58:27;93978.47;;;6.49;52.54
29197;BME280;62796;42.654;23.316;2023-02-04T11:00:53;93968.06;;;6.53;52.89
29197;BME280;62796;42.654;23.316;2023-02-04T11:03:22;93965.13;;;6.42;52.73
29197;BME280;62796;42.654;23.316;2023-02-04T11:05:48;93954.22;;;6.47;52.48
29197;BME280;62796;42.654;23.316;2023-02-04T11:08:40;93966.91;;;6.45;52.08
29197;BME280;62796;42.654;23.316;2023-02-04T11:11:15;93958.66;;;6.45;52.06
29197;BME280;62796;42.654;23.316;2023-02-04T11:18:44;93959.91;;;6.73;50.59
29197;BME280;62796;42.654;23.316;2023-02-04T11:23:45;93959.88;;;6.44;51.38
29197;BME280;62796;42.654;23.316;2023-02-04T11:28:54;93949.91;;;6.32;52.15
29197;BME280;62796;42.654;23.316;2023-02-04T11:33:46;93950.31;;;6.54;51.78
29197;BME280;62796;42.654;23.316;2023-02-04T11:36:14;93943.13;;;6.71;51.25
29197;BME280;62796;42.654;23.316;2023-02-04T11:38:48;93944.44;;;6.76;51.65
29197;BME280;62796;42.654;23.316;2023-02-04T11:41:20;93961.72;;;6.76;50.91
29197;BME280;62796;42.654;23.316;2023-02-04T11:43:51;93951.94;;;6.75;51.01
29197;BME280;62796;42.654;23.316;2023-02-04T11:46:17;93955.84;;;6.83;51.53
29197;BME280;62796;42.654;23.316;2023-02-04T11:48:43;93956.09;;;6.85;51.62
29197;BME280;62796;42.654;23.316;2023-02-04T11:51:15;93954.47;;;6.93;51.38
29197;BME280;62796;42.654;23.316;2023-02-04T11:53:41;93958.56;;;6.98;51.02
29197;BME280;62796;42.654;23.316;2023-02-04T11:56:15;93952.97;;;7.07;51.33
29197;BME280;62796;42.654;23.316;2023-02-04T11:58:41;93945.47;;;7.07;51.44
29197;BME280;62796;42.654;23.316;2023-02-04T12:01:29;93942.91;;;7.04;50.59
29197;BME280;62796;42.654;23.316;2023-02-04T12:04:03;93953.25;;;6.94;51.29
29197;BME280;62796;42.654;23.316;2023-02-04T12:06:30;93958.31;;;6.96;51.49
29197;BME280;62796;42.654;23.316;2023-02-04T12:09:32;93952.97;;;6.92;51.64
29197;BME280;62796;42.654;23.316;2023-02-04T12:11:59;93952.59;;;6.85;52.57
29197;BME280;62796;42.654;23.316;2023-02-04T12:14:43;93957.53;;;6.81;52.92
29197;BME280;62796;42.654;23.316;2023-02-04T12:17:16;93956.00;;;6.94;52.81
29197;BME280;62796;42.654;23.316;2023-02-04T12:19:42;93944.72;;;6.92;53.04
29197;BME280;62796;42.654;23.316;2023-02-04T12:22:07;93944.63;;;7.01;53.00
29197;BME280;62796;42.654;23.316;2023-02-04T12:24:34;93944.63;;;7.01;52.82
29197;BME280;62796;42.654;23.316;2023-02-04T12:26:59;93945.56;;;6.98;53.28
29197;BME280;62796;42.654;23.316;2023-02-04T12:29:24;93934.16;;;6.91;53.36
29197;BME280;62796;42.654;23.316;2023-02-04T12:31:50;93937.59;;;6.86;53.13
29197;BME280;62796;42.654;23.316;2023-02-04T12:34:15;93935.41;;;6.75;53.54
29197;BME280;62796;42.654;23.316;2023-02-04T12:36:41;93939.88;;;6.87;53.01
29197;BME280;62796;42.654;23.316;2023-02-04T12:39:07;93924.13;;;6.88;52.42
29197;BME280;62796;42.654;23.316;2023-02-04T12:41:34;93934.00;;;6.94;52.53
29197;BME280;62796;42.654;23.316;2023-02-04T12:44:00;93936.47;;;6.92;51.44
29197;BME280;62796;42.654;23.316;2023-02-04T12:46:27;93935.63;;;6.57;52.74
29197;BME280;62796;42.654;23.316;2023-02-04T12:48:52;93941.59;;;6.70;52.00
29197;BME280;62796;42.654;23.316;2023-02-04T12:51:18;93935.31;;;6.84;51.62
29197;BME280;62796;42.654;23.316;2023-02-04T12:53:45;93930.31;;;6.68;50.95
29197;BME280;62796;42.654;23.316;2023-02-04T12:56:11;93928.31;;;6.68;50.87
29197;BME280;62796;42.654;23.316;2023-02-04T12:58:36;93931.25;;;6.65;51.18
29197;BME280;62796;42.654;23.316;2023-02-04T13:01:02;93937.50;;;6.80;50.84
29197;BME280;62796;42.654;23.316;2023-02-04T13:03:27;93932.00;;;6.80;50.29
29197;BME280;62796;42.654;23.316;2023-02-04T13:05:53;93934.75;;;6.80;49.91
29197;BME280;62796;42.654;23.316;2023-02-04T13:08:18;93932.88;;;6.72;50.03
29197;BME280;62796;42.654;23.316;2023-02-04T13:10:44;93942.25;;;6.80;50.12
29197;BME280;62796;42.654;23.316;2023-02-04T13:13:09;93932.28;;;6.82;49.95
29197;BME280;62796;42.654;23.316;2023-02-04T13:15:35;93938.47;;;6.48;50.17
29197;BME280;62796;42.654;23.316;2023-02-04T13:18:00;93942.81;;;6.40;51.00